Time;durP1;ratioP1;P1;durP2;ratioP2;P2;SDS_P1;SDS_P2;PMS_P1;PMS_P2;Temp;Humidity;BMP_temperature;BMP_pressure;BME280_temperature;BME280_humidity;BME280_pressure;Samples;Min_cycle;Max_cycle;Signal;HPM_P1;HPM_P2
2021/06/27 00:01:05;;;;;;;13.20;11.77;;;16.90;99.90;;;;;;5049779;28;20612;-83
2021/06/27 00:03:33;;;;;;;12.73;11.37;;;16.80;99.90;;;;;;5049623;28;20651;-83
2021/06/27 00:06:00;;;;;;;11.67;10.47;;;16.80;99.90;;;;;;5049765;28;20605;-83
2021/06/27 00:08:27;;;;;;;11.77;10.67;;;16.70;99.90;;;;;;5050245;28;20614;-83
2021/06/27 00:10:58;;;;;;;13.07;11.77;;;16.60;99.90;;;;;;5050326;28;20607;-83
2021/06/27 00:13:25;;;;;;;12.27;11.07;;;16.60;99.90;;;;;;5050174;28;20657;-83
2021/06/27 00:15:54;;;;;;;12.80;11.60;;;16.50;99.90;;;;;;5060011;28;20679;-83
2021/06/27 00:18:23;;;;;;;11.70;10.50;;;16.50;99.90;;;;;;5069989;28;20707;-83
2021/06/27 00:20:53;;;;;;;12.20;11.00;;;16.50;99.90;;;;;;5070176;28;20610;-83
2021/06/27 00:23:23;;;;;;;12.30;11.20;;;16.50;99.90;;;;;;5069773;28;20716;-83
2021/06/27 00:25:50;;;;;;;12.43;11.23;;;16.50;99.90;;;;;;5069453;28;20610;-83
2021/06/27 00:28:20;;;;;;;13.47;12.10;;;16.40;99.90;;;;;;5069676;28;20621;-84
2021/06/27 00:30:48;;;;;;;12.63;10.83;;;16.40;99.90;;;;;;5069793;28;20601;-83
2021/06/27 00:33:16;;;;;;;13.40;12.10;;;16.50;99.90;;;;;;5069921;28;20613;-83
2021/06/27 00:35:43;;;;;;;12.27;11.07;;;16.50;99.90;;;;;;5068980;28;20710;-83
2021/06/27 00:38:10;;;;;;;12.67;11.37;;;16.50;99.90;;;;;;5069801;28;20629;-83
2021/06/27 00:40:38;;;;;;;12.47;10.90;;;16.40;99.90;;;;;;5069688;28;20622;-83
2021/06/27 00:43:05;;;;;;;13.17;11.40;;;16.30;99.90;;;;;;5069486;28;21047;-83
2021/06/27 00:45:33;;;;;;;12.43;11.23;;;16.20;99.90;;;;;;5069465;28;21066;-83
2021/06/27 00:48:01;;;;;;;12.20;11.00;;;16.20;99.90;;;;;;5069751;28;20706;-83
2021/06/27 00:50:33;;;;;;;12.33;10.80;;;16.20;99.90;;;;;;5069827;28;21049;-83
2021/06/27 00:53:01;;;;;;;17.17;12.77;;;16.30;99.90;;;;;;5069679;28;20659;-83
2021/06/27 00:55:28;;;;;;;12.70;11.40;;;16.20;99.90;;;;;;5068730;28;20655;-82
2021/06/27 00:57:56;;;;;;;12.73;11.53;;;16.20;99.90;;;;;;5069602;28;20661;-83
2021/06/27 01:00:25;;;;;;;11.90;10.77;;;16.20;99.90;;;;;;5069848;28;20663;-83
2021/06/27 01:02:53;;;;;;;13.40;11.97;;;16.20;99.90;;;;;;5069085;28;20632;-83
2021/06/27 01:05:24;;;;;;;11.93;10.83;;;16.20;99.90;;;;;;5069168;28;20616;-83
2021/06/27 01:07:53;;;;;;;11.67;10.60;;;16.20;99.90;;;;;;5069494;28;20618;-82
2021/06/27 01:10:23;;;;;;;11.97;10.60;;;16.10;99.90;;;;;;5069458;28;21029;-82
2021/06/27 01:12:52;;;;;;;13.20;11.90;;;16.10;99.90;;;;;;5070446;28;20618;-83
2021/06/27 01:15:21;;;;;;;12.27;11.03;;;16.10;99.90;;;;;;5066437;28;20668;-82
2021/06/27 01:17:51;;;;;;;11.83;10.83;;;16.10;99.90;;;;;;5052917;28;20823;-82
2021/06/27 01:20:21;;;;;;;11.73;10.43;;;16.20;99.90;;;;;;5052927;28;20602;-83
2021/06/27 01:22:51;;;;;;;11.60;10.63;;;16.10;99.90;;;;;;5052786;28;20702;-83
2021/06/27 01:25:22;;;;;;;12.17;10.97;;;16.10;99.90;;;;;;5052121;28;20618;-83
2021/06/27 01:27:50;;;;;;;12.03;10.70;;;16.10;99.90;;;;;;5052889;28;20622;-83
2021/06/27 01:30:20;;;;;;;12.43;11.23;;;16.10;99.90;;;;;;5052886;28;20953;-83
2021/06/27 01:32:51;;;;;;;12.83;11.63;;;16.10;99.90;;;;;;5052766;28;20629;-83
2021/06/27 01:35:21;;;;;;;12.60;11.40;;;16.00;99.90;;;;;;5051055;28;20618;-83
2021/06/27 01:37:53;;;;;;;13.00;11.77;;;16.00;99.90;;;;;;5052406;28;20637;-83
2021/06/27 01:40:22;;;;;;;13.70;12.37;;;16.00;99.90;;;;;;5052332;28;20619;-83
2021/06/27 01:42:54;;;;;;;14.40;12.30;;;15.90;99.90;;;;;;5052664;28;20626;-83
2021/06/27 01:45:25;;;;;;;13.60;12.17;;;16.00;99.90;;;;;;5051774;28;20717;-83
2021/06/27 01:47:59;;;;;;;15.80;14.13;;;16.00;99.90;;;;;;5052599;28;20687;-83
2021/06/27 01:50:29;;;;;;;15.40;13.93;;;16.10;99.90;;;;;;5052390;28;20645;-83
2021/06/27 01:53:00;;;;;;;15.33;13.83;;;16.10;99.90;;;;;;5052293;28;20607;-83
2021/06/27 01:55:29;;;;;;;16.03;14.50;;;16.00;99.90;;;;;;5051937;28;21270;-83
2021/06/27 01:57:57;;;;;;;16.40;14.80;;;15.90;99.90;;;;;;5052093;28;20664;-83
2021/06/27 02:00:28;;;;;;;15.70;14.17;;;15.80;99.90;;;;;;5052104;28;21233;-82
2021/06/27 02:02:57;;;;;;;15.67;14.00;;;16.00;99.90;;;;;;5054581;28;20649;-83
2021/06/27 02:05:29;;;;;;;16.50;14.90;;;16.00;99.90;;;;;;5060575;28;20717;-83
2021/06/27 02:08:00;;;;;;;16.73;14.80;;;16.00;99.90;;;;;;5061058;28;20628;-83
2021/06/27 02:10:30;;;;;;;15.97;14.47;;;15.90;99.90;;;;;;5058345;28;20629;-82
2021/06/27 02:13:00;;;;;;;18.33;16.53;;;16.00;99.90;;;;;;5060577;28;20623;-83
2021/06/27 02:15:29;;;;;;;16.47;14.83;;;16.00;99.90;;;;;;5051401;28;20621;-83
2021/06/27 02:18:13;;;;;;;15.97;14.33;;;16.00;99.90;;;;;;5067565;28;20677;-83
2021/06/27 02:20:41;;;;;;;16.23;14.60;;;16.00;99.90;;;;;;5071911;28;20617;-82
2021/06/27 02:23:12;;;;;;;18.27;16.47;;;16.00;99.90;;;;;;5071099;28;20614;-83
2021/06/27 02:25:41;;;;;;;17.53;15.93;;;15.90;99.90;;;;;;5061647;28;20649;-83
2021/06/27 02:28:10;;;;;;;13.73;12.40;;;15.90;99.90;;;;;;5051872;28;21169;-83
2021/06/27 02:30:39;;;;;;;17.30;15.50;;;15.90;99.90;;;;;;5051597;28;20610;-83
2021/06/27 02:33:08;;;;;;;16.93;14.03;;;15.80;99.90;;;;;;5051486;28;20721;-83
2021/06/27 02:35:56;;;;;;;17.17;15.57;;;15.80;99.90;;;;;;5050097;28;20738;-83
2021/06/27 02:38:28;;;;;;;15.47;14.00;;;15.80;99.90;;;;;;5051341;28;20648;-83
2021/06/27 02:40:57;;;;;;;14.87;13.47;;;15.70;99.90;;;;;;5051474;28;20633;-83
2021/06/27 02:43:25;;;;;;;16.83;14.63;;;15.70;99.90;;;;;;5065752;28;20620;-83
2021/06/27 02:45:54;;;;;;;15.73;14.37;;;15.60;99.90;;;;;;5070233;28;20610;-82
2021/06/27 02:48:22;;;;;;;15.97;14.40;;;15.50;99.90;;;;;;5071132;28;20614;-83
2021/06/27 02:50:49;;;;;;;14.43;12.97;;;15.40;99.90;;;;;;5071279;28;20973;-83
2021/06/27 02:53:16;;;;;;;15.37;13.90;;;15.50;99.90;;;;;;5071105;28;21174;-83
2021/06/27 02:55:45;;;;;;;16.87;15.07;;;15.50;99.90;;;;;;5070595;28;20610;-83
2021/06/27 02:58:13;;;;;;;14.47;13.07;;;15.60;99.90;;;;;;5071019;28;20751;-83
2021/06/27 03:00:40;;;;;;;15.97;14.37;;;15.70;99.90;;;;;;5070508;28;20616;-83
2021/06/27 03:03:10;;;;;;;16.27;14.77;;;15.70;99.90;;;;;;5071482;28;21423;-83
2021/06/27 03:05:38;;;;;;;16.57;14.60;;;15.70;99.90;;;;;;5070429;28;21178;-82
2021/06/27 03:08:05;;;;;;;16.33;14.63;;;15.70;99.90;;;;;;5070778;28;20642;-83
2021/06/27 03:10:33;;;;;;;15.33;13.80;;;15.60;99.90;;;;;;5070648;28;20618;-83
2021/06/27 03:13:01;;;;;;;14.50;13.10;;;15.50;99.90;;;;;;5070063;28;20624;-82
2021/06/27 03:15:28;;;;;;;16.60;14.90;;;15.70;99.90;;;;;;5070424;28;20712;-83
2021/06/27 03:17:56;;;;;;;16.73;14.77;;;15.70;99.90;;;;;;5052677;28;21199;-84
2021/06/27 03:20:23;;;;;;;17.00;14.87;;;15.60;99.90;;;;;;5050675;28;20889;-82
2021/06/27 03:22:51;;;;;;;14.60;13.30;;;15.60;99.90;;;;;;5050559;28;21178;-83
2021/06/27 03:25:20;;;;;;;13.50;12.20;;;15.60;99.90;;;;;;5049873;28;20623;-83
2021/06/27 03:27:47;;;;;;;15.00;13.23;;;15.80;99.90;;;;;;5050355;28;21269;-83
2021/06/27 03:30:18;;;;;;;16.43;14.70;;;15.70;99.90;;;;;;5050662;28;21008;-83
2021/06/27 03:32:47;;;;;;;15.83;14.37;;;15.60;99.90;;;;;;5050638;28;21221;-83
2021/06/27 03:35:15;;;;;;;14.43;13.13;;;15.60;99.90;;;;;;5048906;28;20618;-83
2021/06/27 03:37:50;;;;;;;15.20;13.70;;;15.70;99.90;;;;;;5050512;28;20614;-83
2021/06/27 03:40:20;;;;;;;17.33;13.40;;;15.70;99.90;;;;;;5049814;28;20658;-83
2021/06/27 03:42:49;;;;;;;12.97;11.77;;;15.70;99.90;;;;;;5050426;28;20618;-82
2021/06/27 03:45:20;;;;;;;14.47;13.07;;;15.70;99.90;;;;;;5049610;28;21193;-83
2021/06/27 03:47:48;;;;;;;14.63;13.27;;;15.80;99.90;;;;;;5050171;28;20626;-83
2021/06/27 03:50:18;;;;;;;14.77;13.17;;;15.80;99.90;;;;;;5050233;28;21003;-82
2021/06/27 03:52:47;;;;;;;14.40;13.00;;;15.80;99.90;;;;;;5049871;28;20737;-83
2021/06/27 03:55:18;;;;;;;12.97;11.77;;;15.80;99.90;;;;;;5049768;28;20619;-83
2021/06/27 03:57:50;;;;;;;13.13;11.80;;;15.80;99.90;;;;;;5049852;28;20614;-83
2021/06/27 04:00:20;;;;;;;13.53;12.27;;;15.90;99.90;;;;;;5049788;28;20661;-83
2021/06/27 04:02:50;;;;;;;10.80;9.80;;;15.90;99.90;;;;;;5050407;28;20618;-83
2021/06/27 04:05:18;;;;;;;11.63;10.27;;;15.80;99.90;;;;;;5049379;28;20630;-83
2021/06/27 04:07:46;;;;;;;11.93;10.37;;;15.90;99.90;;;;;;5050183;28;20618;-83
2021/06/27 04:10:14;;;;;;;11.63;10.53;;;16.00;99.90;;;;;;5050138;28;20662;-83
2021/06/27 04:12:42;;;;;;;12.03;10.93;;;16.00;99.90;;;;;;5049926;28;21178;-83
2021/06/27 04:15:11;;;;;;;12.30;11.17;;;16.10;99.90;;;;;;5049435;28;20983;-82
2021/06/27 04:17:41;;;;;;;12.93;11.63;;;16.20;99.90;;;;;;5064760;28;20625;-82
2021/06/27 04:20:10;;;;;;;13.20;11.90;;;16.30;99.90;;;;;;5070162;28;20664;-83
2021/06/27 04:22:38;;;;;;;12.73;11.40;;;16.40;99.90;;;;;;5070016;28;20990;-83
2021/06/27 04:25:08;;;;;;;12.37;11.07;;;16.40;99.90;;;;;;5058314;28;20637;-83
2021/06/27 04:27:38;;;;;;;11.80;10.60;;;16.50;99.90;;;;;;5049748;28;20622;-83
2021/06/27 04:30:08;;;;;;;11.90;10.80;;;16.40;99.90;;;;;;5049223;28;20630;-83
2021/06/27 04:32:36;;;;;;;12.63;11.43;;;16.40;99.90;;;;;;5049860;28;20726;-83
2021/06/27 04:35:08;;;;;;;13.07;11.67;;;16.50;99.90;;;;;;5048480;28;20606;-83
2021/06/27 04:37:38;;;;;;;11.57;10.50;;;16.50;99.90;;;;;;5049987;28;20709;-83
2021/06/27 04:40:07;;;;;;;12.30;11.03;;;16.60;99.90;;;;;;5049694;28;20650;-83
2021/06/27 04:42:36;;;;;;;11.60;10.50;;;16.60;99.90;;;;;;5049343;28;21015;-83
2021/06/27 04:45:06;;;;;;;11.43;10.33;;;16.60;99.90;;;;;;5049096;28;21083;-83
2021/06/27 04:47:35;;;;;;;11.20;10.20;;;16.60;99.90;;;;;;5052147;28;21297;-83
2021/06/27 04:50:04;;;;;;;12.00;10.97;;;16.70;99.90;;;;;;5053480;28;20628;-83
2021/06/27 04:52:34;;;;;;;11.53;10.40;;;16.70;99.90;;;;;;5053254;28;20611;-83
2021/06/27 04:55:01;;;;;;;11.00;10.00;;;16.80;99.90;;;;;;5052557;28;21069;-83
2021/06/27 04:57:30;;;;;;;10.63;9.70;;;16.80;99.90;;;;;;5053237;28;20672;-83
2021/06/27 04:59:58;;;;;;;11.30;10.30;;;16.90;99.90;;;;;;5053256;28;20661;-83
2021/06/27 05:02:26;;;;;;;9.73;8.83;;;17.00;99.90;;;;;;5053163;28;21228;-83
2021/06/27 05:04:54;;;;;;;10.87;9.90;;;17.00;99.90;;;;;;5052639;28;20616;-83
2021/06/27 05:07:22;;;;;;;11.53;9.50;;;17.20;99.90;;;;;;5053285;28;20675;-83
2021/06/27 05:09:53;;;;;;;10.70;9.43;;;17.10;99.90;;;;;;5052568;28;20616;-82
2021/06/27 05:12:21;;;;;;;10.13;9.20;;;17.20;99.90;;;;;;5052989;28;20699;-83
2021/06/27 05:14:49;;;;;;;10.17;9.37;;;17.10;99.90;;;;;;5052511;28;20615;-82
2021/06/27 05:17:17;;;;;;;9.67;8.77;;;17.20;99.90;;;;;;5065254;28;21238;-82
2021/06/27 05:19:44;;;;;;;10.43;9.33;;;17.20;99.90;;;;;;5072833;28;20695;-82
2021/06/27 05:22:12;;;;;;;10.20;9.10;;;17.20;99.90;;;;;;5072537;28;21193;-82
2021/06/27 05:24:40;;;;;;;10.30;9.30;;;17.20;99.90;;;;;;5072276;28;20629;-82
2021/06/27 05:27:10;;;;;;;8.20;7.53;;;17.20;99.90;;;;;;5073052;28;20662;-83
2021/06/27 05:29:37;;;;;;;11.37;8.33;;;17.20;99.90;;;;;;5072701;28;20614;-83
2021/06/27 05:32:06;;;;;;;10.57;9.03;;;17.20;99.90;;;;;;5072407;28;20611;-83
2021/06/27 05:34:34;;;;;;;9.83;8.83;;;17.40;99.90;;;;;;5071494;28;21293;-83
2021/06/27 05:37:02;;;;;;;8.67;7.87;;;17.40;99.90;;;;;;5072345;28;20616;-83
2021/06/27 05:39:31;;;;;;;9.50;8.60;;;17.60;99.90;;;;;;5072461;28;20655;-83
2021/06/27 05:41:58;;;;;;;7.70;7.00;;;17.70;99.90;;;;;;5072366;28;21183;-83
2021/06/27 05:44:27;;;;;;;7.67;7.00;;;17.70;99.90;;;;;;5072105;28;20727;-83
2021/06/27 05:46:55;;;;;;;7.73;7.03;;;17.80;99.90;;;;;;5072217;28;20655;-83
2021/06/27 05:49:22;;;;;;;8.33;7.53;;;17.80;99.90;;;;;;5072060;28;20619;-83
2021/06/27 05:51:50;;;;;;;6.87;6.30;;;17.90;99.90;;;;;;5072311;28;20612;-83
2021/06/27 05:54:18;;;;;;;7.67;6.90;;;18.10;99.90;;;;;;5071982;28;20658;-83
2021/06/27 05:56:45;;;;;;;8.53;7.63;;;18.10;99.90;;;;;;5072271;28;20610;-82
2021/06/27 05:59:13;;;;;;;8.00;7.20;;;18.10;99.90;;;;;;5071361;28;20703;-82
2021/06/27 06:01:41;;;;;;;8.53;7.77;;;18.20;99.90;;;;;;5072085;28;20708;-83
2021/06/27 06:04:09;;;;;;;8.13;7.43;;;18.30;99.90;;;;;;5071742;28;20625;-83
2021/06/27 06:06:36;;;;;;;7.33;6.73;;;18.30;99.90;;;;;;5071433;28;20600;-83
2021/06/27 06:09:03;;;;;;;9.17;8.23;;;18.30;99.90;;;;;;5071765;28;21173;-82
2021/06/27 06:11:30;;;;;;;7.70;7.00;;;18.30;99.90;;;;;;5071874;28;21001;-82
2021/06/27 06:13:57;;;;;;;11.40;6.60;;;18.40;99.90;;;;;;5071837;28;21203;-83
2021/06/27 06:16:24;;;;;;;7.60;6.90;;;18.40;99.90;;;;;;5065874;28;20679;-82
2021/06/27 06:18:52;;;;;;;8.20;7.50;;;18.40;99.90;;;;;;5051565;28;20653;-82
2021/06/27 06:21:19;;;;;;;7.33;6.60;;;18.50;99.90;;;;;;5052062;28;20610;-82
2021/06/27 06:23:47;;;;;;;7.10;6.50;;;18.60;99.90;;;;;;5051636;28;20622;-83
2021/06/27 06:26:14;;;;;;;7.50;6.80;;;18.60;99.90;;;;;;5051330;28;20645;-82
2021/06/27 06:28:41;;;;;;;7.80;7.00;;;18.70;99.90;;;;;;5051606;28;20688;-82
2021/06/27 06:31:08;;;;;;;8.33;6.90;;;18.80;99.90;;;;;;5051496;28;20686;-82
2021/06/27 06:33:36;;;;;;;7.80;7.10;;;18.90;99.90;;;;;;5051501;28;20622;-81
2021/06/27 06:36:05;;;;;;;8.33;7.60;;;19.00;99.90;;;;;;5050141;28;20622;-82
2021/06/27 06:38:32;;;;;;;7.00;6.40;;;19.20;99.90;;;;;;5051498;28;20650;-82
2021/06/27 06:40:59;;;;;;;8.50;6.93;;;19.30;99.90;;;;;;5051249;28;20704;-82
2021/06/27 06:43:26;;;;;;;8.33;7.53;;;19.50;99.90;;;;;;5051165;28;20622;-82
2021/06/27 06:45:53;;;;;;;7.70;6.93;;;19.50;99.90;;;;;;5050578;28;20607;-82
2021/06/27 06:48:20;;;;;;;7.37;6.27;;;19.60;99.90;;;;;;5051288;28;20618;-83
2021/06/27 06:50:46;;;;;;;7.20;6.60;;;19.70;99.90;;;;;;5051216;28;20695;-83
2021/06/27 06:53:15;;;;;;;7.07;6.57;;;19.80;99.90;;;;;;5051021;28;20602;-83
2021/06/27 06:55:42;;;;;;;5.90;5.47;;;19.80;99.90;;;;;;5050546;28;20708;-82
2021/06/27 06:58:08;;;;;;;7.03;6.47;;;19.90;99.90;;;;;;5050510;28;20650;-83
2021/06/27 07:00:35;;;;;;;6.87;6.27;;;19.90;99.90;;;;;;5051051;28;20813;-84
2021/06/27 07:03:02;;;;;;;7.73;7.13;;;19.90;99.90;;;;;;5051183;28;20626;-83
2021/06/27 07:05:29;;;;;;;5.90;5.40;;;19.90;99.90;;;;;;5050422;28;20999;-83
2021/06/27 07:07:56;;;;;;;8.40;5.97;;;19.90;99.90;;;;;;5051120;28;20622;-83
2021/06/27 07:10:24;;;;;;;7.10;6.50;;;20.00;99.90;;;;;;5049865;28;20626;-83
2021/06/27 07:12:51;;;;;;;6.47;5.87;;;20.00;99.90;;;;;;5050678;28;20603;-84
2021/06/27 07:15:18;;;;;;;6.43;5.93;;;20.10;99.90;;;;;;5050162;28;20679;-83
2021/06/27 07:17:45;;;;;;;6.90;6.23;;;20.30;99.90;;;;;;5067111;28;20626;-83
2021/06/27 07:20:13;;;;;;;6.50;6.00;;;20.40;99.90;;;;;;5070438;28;20649;-83
2021/06/27 07:22:40;;;;;;;6.90;6.30;;;20.60;99.90;;;;;;5070611;28;21185;-85
2021/06/27 07:25:09;;;;;;;6.23;5.70;;;20.70;99.30;;;;;;5069323;28;20621;-83
2021/06/27 07:27:38;;;;;;;6.30;5.87;;;20.70;99.50;;;;;;5070446;28;21191;-83
2021/06/27 07:30:07;;;;;;;8.67;7.83;;;20.80;99.20;;;;;;5070490;28;20675;-83
2021/06/27 07:32:34;;;;;;;6.47;5.87;;;20.90;98.50;;;;;;5070417;28;20678;-82
2021/06/27 07:35:01;;;;;;;6.27;5.77;;;21.10;98.00;;;;;;5068946;28;20622;-84
2021/06/27 07:37:28;;;;;;;6.00;5.60;;;21.20;98.30;;;;;;5070347;28;21052;-84
2021/06/27 07:39:55;;;;;;;6.37;5.80;;;21.30;97.40;;;;;;5069698;28;21251;-84
2021/06/27 07:42:22;;;;;;;5.80;5.30;;;21.30;96.70;;;;;;5070760;28;20622;-84
2021/06/27 07:44:50;;;;;;;6.50;5.90;;;21.40;97.50;;;;;;5069771;28;20668;-84
2021/06/27 07:47:17;;;;;;;6.43;5.90;;;21.50;97.50;;;;;;5070425;28;20630;-83
2021/06/27 07:49:44;;;;;;;6.50;6.00;;;21.60;96.80;;;;;;5070006;28;20655;-84
2021/06/27 07:52:11;;;;;;;6.07;5.60;;;21.70;97.00;;;;;;5069887;28;20616;-83
2021/06/27 07:54:38;;;;;;;7.67;7.00;;;21.80;96.60;;;;;;5069632;28;20640;-86
2021/06/27 07:57:06;;;;;;;5.90;5.37;;;21.90;97.10;;;;;;5070465;28;20620;-85
2021/06/27 07:59:33;;;;;;;6.07;5.67;;;22.10;96.30;;;;;;5070242;28;20628;-86
2021/06/27 08:02:01;;;;;;;5.50;5.03;;;22.20;95.90;;;;;;5070334;28;20708;-86
2021/06/27 08:04:28;;;;;;;6.67;5.10;;;22.30;95.20;;;;;;5069498;28;20615;-85
2021/06/27 08:06:55;;;;;;;6.23;5.80;;;22.40;95.90;;;;;;5069531;28;20596;-86
2021/06/27 08:09:22;;;;;;;6.20;5.80;;;22.50;95.80;;;;;;5069914;28;20616;-86
2021/06/27 08:11:49;;;;;;;5.30;4.90;;;22.60;95.20;;;;;;5070030;28;21152;-85
2021/06/27 08:14:18;;;;;;;5.83;5.33;;;22.70;95.70;;;;;;5070113;28;20633;-86
2021/06/27 08:16:45;;;;;;;6.73;6.23;;;22.80;96.00;;;;;;5062147;28;20627;-86
2021/06/27 08:19:13;;;;;;;7.03;6.47;;;22.80;96.00;;;;;;5049639;28;20679;-86
2021/06/27 08:21:40;;;;;;;5.50;5.10;;;23.00;95.30;;;;;;5050784;28;21101;-87
2021/06/27 08:24:07;;;;;;;6.47;5.97;;;23.00;95.40;;;;;;5054459;28;20664;-85
2021/06/27 08:26:34;;;;;;;6.47;5.97;;;23.20;94.80;;;;;;5053381;28;21139;-86
2021/06/27 08:29:01;;;;;;;7.53;5.50;;;23.40;95.40;;;;;;5053859;28;20616;-85
2021/06/27 08:31:28;;;;;;;5.97;5.47;;;23.30;94.30;;;;;;5053974;28;20685;-85
2021/06/27 08:33:56;;;;;;;7.43;5.90;;;23.40;94.70;;;;;;5053164;28;20647;-85
2021/06/27 08:36:26;;;;;;;5.93;5.43;;;23.60;93.30;;;;;;5052539;28;20711;-86
2021/06/27 08:38:53;;;;;;;6.40;5.83;;;23.70;92.70;;;;;;5053903;28;20640;-86
2021/06/27 08:41:20;;;;;;;5.90;5.50;;;23.80;93.40;;;;;;5053237;28;20673;-85
2021/06/27 08:43:47;;;;;;;6.00;5.50;;;23.80;93.10;;;;;;5053877;28;20648;-86
2021/06/27 08:46:15;;;;;;;6.53;5.93;;;23.80;93.40;;;;;;5052958;28;21294;-86
2021/06/27 08:48:44;;;;;;;5.60;5.20;;;23.90;93.20;;;;;;5053676;28;20628;-86
2021/06/27 08:51:12;;;;;;;6.20;5.10;;;24.10;92.70;;;;;;5053315;28;20630;-86
2021/06/27 08:53:42;;;;;;;5.77;5.37;;;24.30;93.90;;;;;;5053611;28;20624;-86
2021/06/27 08:56:10;;;;;;;5.57;5.07;;;24.40;93.10;;;;;;5052980;28;20752;-86
2021/06/27 08:58:39;;;;;;;5.27;4.97;;;24.50;91.10;;;;;;5053340;28;21316;-86
2021/06/27 09:01:08;;;;;;;5.53;5.13;;;24.50;90.90;;;;;;5052830;28;20641;-85
2021/06/27 09:03:35;;;;;;;5.00;4.60;;;24.60;90.40;;;;;;5053423;28;20944;-85
2021/06/27 09:06:02;;;;;;;5.20;4.80;;;24.70;89.30;;;;;;5052548;28;20715;-86
2021/06/27 09:08:29;;;;;;;5.27;4.87;;;24.80;88.90;;;;;;5053190;28;20650;-83
2021/06/27 09:11:12;;;;;;;5.13;4.73;;;24.80;87.50;;;;;;5053115;28;20619;-84
2021/06/27 09:13:41;;;;;;;6.03;5.63;;;24.80;87.60;;;;;;5052701;28;21154;-85
2021/06/27 09:16:22;;;;;;;5.47;5.00;;;24.70;89.80;;;;;;5055111;28;20665;-85
2021/06/27 09:18:50;;;;;;;4.73;4.33;;;24.90;89.90;;;;;;5073046;28;21069;-85
2021/06/27 09:21:17;;;;;;;7.20;4.80;;;25.00;86.80;;;;;;5071788;28;20664;-85
2021/06/27 09:23:47;;;;;;;5.03;4.67;;;25.20;86.70;;;;;;5065288;28;20657;-85
2021/06/27 09:26:30;;;;;;;4.70;4.30;;;25.40;87.50;;;;;;5054948;28;20629;-85
2021/06/27 09:28:57;;;;;;;4.60;4.20;;;25.50;85.20;;;;;;5060307;28;20622;-83
2021/06/27 09:31:39;;;;;;;4.80;4.50;;;25.50;82.70;;;;;;5072517;28;20613;-83
2021/06/27 09:34:08;;;;;;;5.07;4.03;;;25.50;80.90;;;;;;5060825;28;20611;-85
2021/06/27 09:36:40;;;;;;;5.33;4.93;;;25.60;82.20;;;;;;5051498;28;20622;-86
2021/06/27 09:39:11;;;;;;;4.30;4.00;;;25.70;82.70;;;;;;5062005;28;20622;-81
2021/06/27 09:41:48;;;;;;;5.77;5.37;;;25.70;81.20;;;;;;5072443;28;20660;-81
2021/06/27 09:44:16;;;;;;;4.60;4.20;;;25.80;82.10;;;;;;5072368;28;20707;-83
2021/06/27 09:46:46;;;;;;;4.63;4.33;;;25.90;83.00;;;;;;5071975;28;20621;-83
2021/06/27 09:49:17;;;;;;;4.60;4.20;;;25.90;79.50;;;;;;5072321;28;20704;-83
2021/06/27 09:51:51;;;;;;;4.80;4.50;;;26.10;80.50;;;;;;5072419;28;20625;-83
2021/06/27 09:54:20;;;;;;;4.93;4.53;;;26.30;83.70;;;;;;5071748;28;21009;-83
2021/06/27 09:56:51;;;;;;;4.50;4.20;;;26.30;83.40;;;;;;5072157;28;20981;-83
2021/06/27 09:59:20;;;;;;;4.17;3.87;;;26.40;78.40;;;;;;5071666;28;21216;-81
2021/06/27 10:01:47;;;;;;;4.47;4.17;;;26.50;77.70;;;;;;5071922;28;20656;-84
2021/06/27 10:04:26;;;;;;;4.10;3.80;;;26.50;75.70;;;;;;5071963;28;20675;-84
2021/06/27 10:06:54;;;;;;;4.60;4.30;;;26.50;74.60;;;;;;5071919;28;21208;-82
2021/06/27 10:09:24;;;;;;;4.60;4.30;;;26.60;74.90;;;;;;5072060;28;20598;-82
2021/06/27 10:12:02;;;;;;;4.87;4.50;;;26.70;74.30;;;;;;5071608;28;21026;-83
2021/06/27 10:14:32;;;;;;;4.03;3.83;;;26.90;73.80;;;;;;5071520;28;21189;-83
2021/06/27 10:17:01;;;;;;;5.13;3.63;;;27.00;74.80;;;;;;5052012;28;20646;-84
2021/06/27 10:19:29;;;;;;;4.03;3.73;;;27.10;73.60;;;;;;5051742;28;21008;-84
2021/06/27 10:21:56;;;;;;;3.90;3.70;;;27.30;75.90;;;;;;5051644;28;20770;-84
2021/06/27 10:24:24;;;;;;;3.80;3.50;;;27.50;69.40;;;;;;5050816;28;20622;-83
2021/06/27 10:26:51;;;;;;;3.17;2.97;;;27.30;67.30;;;;;;5065687;28;20674;-84
2021/06/27 10:29:21;;;;;;;3.60;3.40;;;27.10;71.60;;;;;;5071535;28;20628;-84
2021/06/27 10:31:49;;;;;;;3.73;3.50;;;27.00;70.20;;;;;;5071454;28;20637;-83
2021/06/27 10:34:16;;;;;;;4.60;4.30;;;27.20;73.20;;;;;;5070512;28;21249;-84
2021/06/27 10:36:45;;;;;;;4.00;3.70;;;27.40;71.90;;;;;;5065638;28;20617;-83
2021/06/27 10:39:15;;;;;;;3.20;3.00;;;27.70;69.80;;;;;;5054841;28;20617;-84
2021/06/27 10:41:59;;;;;;;3.23;3.03;;;28.10;68.20;;;;;;5071172;28;20664;-83
2021/06/27 10:44:30;;;;;;;3.70;3.50;;;28.10;64.30;;;;;;5070751;28;20625;-84
2021/06/27 10:46:59;;;;;;;3.27;3.07;;;28.10;66.30;;;;;;5070808;28;21178;-83
2021/06/27 10:49:53;;;;;;;3.40;3.20;;;28.20;64.10;;;;;;5070219;28;21412;-83
2021/06/27 10:52:22;;;;;;;4.00;3.23;;;28.10;60.80;;;;;;5071043;28;20692;-84
2021/06/27 10:55:19;;;;;;;3.30;3.10;;;28.20;64.00;;;;;;5070987;28;20665;-84
2021/06/27 10:57:54;;;;;;;3.03;2.83;;;28.50;63.20;;;;;;5070651;28;20620;-84
2021/06/27 11:00:23;;;;;;;2.93;2.73;;;28.70;66.10;;;;;;5070646;28;20620;-84
2021/06/27 11:02:50;;;;;;;3.70;3.50;;;28.70;64.00;;;;;;5070358;28;20629;-83
2021/06/27 11:05:42;;;;;;;3.50;3.30;;;28.80;65.10;;;;;;5070125;28;21211;-84
2021/06/27 11:08:12;;;;;;;4.07;3.70;;;29.00;62.20;;;;;;5070444;28;21015;-83
2021/06/27 11:10:39;;;;;;;3.77;3.53;;;29.10;61.40;;;;;;5070562;28;20626;-85
2021/06/27 11:13:17;;;;;;;3.37;3.17;;;29.50;61.50;;;;;;5070650;28;20968;-85
2021/06/27 11:16:09;;;;;;;3.37;3.13;;;29.50;56.90;;;;;;5069651;28;20644;-85
2021/06/27 11:18:38;;;;;;;3.30;3.10;;;29.10;57.80;;;;;;5070432;28;20613;-84
2021/06/27 11:21:13;;;;;;;3.80;3.60;;;29.50;59.80;;;;;;5070790;28;20707;-85
2021/06/27 11:24:04;;;;;;;3.30;3.10;;;29.90;57.00;;;;;;5071002;28;20617;-84
2021/06/27 11:27:06;;;;;;;2.87;2.67;;;30.20;57.30;;;;;;5066364;28;20715;-84
2021/06/27 11:29:53;;;;;;;3.40;3.20;;;30.30;55.80;;;;;;5070668;28;20641;-83
2021/06/27 11:32:47;;;;;;;3.50;3.03;;;30.50;55.50;;;;;;5065448;28;21003;-83
2021/06/27 11:35:44;;;;;;;3.27;3.07;;;30.80;57.20;;;;;;5064063;28;20630;-83
2021/06/27 11:38:38;;;;;;;3.23;3.03;;;30.90;54.40;;;;;;5070657;28;20700;-85
2021/06/27 11:41:07;;;;;;;3.30;3.10;;;31.00;54.50;;;;;;5068536;28;20660;-85
2021/06/27 11:43:58;;;;;;;3.07;2.87;;;31.10;55.40;;;;;;5069875;28;20984;-85
2021/06/27 11:46:31;;;;;;;3.17;2.97;;;31.50;52.90;;;;;;5069446;28;20610;-83
2021/06/27 11:49:00;;;;;;;2.80;2.60;;;31.80;52.20;;;;;;5070382;28;21158;-85
2021/06/27 11:51:39;;;;;;;3.40;3.20;;;32.10;51.60;;;;;;5070138;28;20618;-84
2021/06/27 11:54:07;;;;;;;3.47;3.17;;;32.40;51.20;;;;;;5069888;28;20616;-83
2021/06/27 11:56:57;;;;;;;4.00;2.80;;;32.70;50.30;;;;;;5068856;28;20953;-84
2021/06/27 11:59:25;;;;;;;3.00;2.77;;;32.80;51.20;;;;;;5070096;28;20632;-85
2021/06/27 12:02:09;;;;;;;3.30;3.10;;;32.80;49.70;;;;;;5070145;28;20652;-84
2021/06/27 12:04:44;;;;;;;3.20;3.00;;;32.40;51.60;;;;;;5069604;28;20625;-84
2021/06/27 12:07:31;;;;;;;2.70;2.60;;;32.10;50.80;;;;;;5069850;28;20633;-85
2021/06/27 12:10:00;;;;;;;3.30;3.10;;;32.80;51.10;;;;;;5070038;28;20633;-85
2021/06/27 12:12:39;;;;;;;2.87;2.77;;;33.60;49.00;;;;;;5069912;28;20617;-84
2021/06/27 12:15:08;;;;;;;3.07;2.87;;;34.40;50.50;;;;;;5069638;28;20712;-84
2021/06/27 12:17:35;;;;;;;2.90;2.80;;;35.10;47.30;;;;;;5069281;28;20620;-85
2021/06/27 12:20:05;;;;;;;2.80;2.70;;;35.70;46.00;;;;;;5069599;28;20625;-85
2021/06/27 12:25:30;;;;;;;2.90;2.80;;;35.80;44.90;;;;;;5053531;28;20739;-85
2021/06/27 12:27:59;;;;;;;3.00;2.90;;;35.80;44.50;;;;;;5065718;28;20621;-85
2021/06/27 12:30:50;;;;;;;2.43;2.33;;;36.00;44.20;;;;;;5052818;28;20206;-86
2021/06/27 12:33:20;;;;;;;2.70;2.60;;;35.80;44.20;;;;;;5064896;28;20248;-86
2021/06/27 12:35:54;;;;;;;2.80;2.60;;;35.90;45.30;;;;;;5068002;28;20191;-84
2021/06/27 12:38:22;;;;;;;2.53;2.37;;;36.20;42.50;;;;;;5069759;28;20179;-86
2021/06/27 12:40:51;;;;;;;2.90;2.80;;;36.70;42.90;;;;;;5069542;28;20628;-84
2021/06/27 12:43:33;;;;;;;2.63;2.53;;;36.50;42.70;;;;;;5069684;28;20715;-85
2021/06/27 12:46:28;;;;;;;2.30;2.10;;;36.80;40.40;;;;;;5062566;28;20624;-85
2021/06/27 12:49:18;;;;;;;2.40;2.30;;;37.30;38.90;;;;;;5064626;28;20229;-86
2021/06/27 12:51:49;;;;;;;2.77;2.67;;;37.20;41.00;;;;;;5068793;28;20207;-86
2021/06/27 12:54:27;;;;;;;2.53;2.43;;;37.60;39.70;;;;;;5068664;28;20667;-86
2021/06/27 12:57:02;;;;;;;2.73;2.50;;;37.40;39.70;;;;;;5069572;28;20202;-85